Time;durP1;ratioP1;P1;durP2;ratioP2;P2;SDS_P1;SDS_P2;PMS_P1;PMS_P2;Temp;Humidity;BMP_temperature;BMP_pressure;BME280_temperature;BME280_humidity;BME280_pressure;Samples;Min_cycle;Max_cycle;Signal;HPM_P1;HPM_P2
2023/01/26 00:01:27;;;;;;;7.47;6.77;;;;;;;-2.80;100.00;101265.19;5012607;28;20243;-80
2023/01/26 00:03:52;;;;;;;17.00;11.83;;;;;;;-2.86;100.00;101265.19;5012882;28;20184;-78
2023/01/26 00:06:19;;;;;;;0.00;0.00;;;;;;;-2.88;100.00;101268.06;5012694;28;20415;-79
2023/01/26 00:08:47;;;;;;;4.30;3.77;;;;;;;-2.83;100.00;101264.78;5012620;28;20263;-79
2023/01/26 00:11:15;;;;;;;14.80;5.47;;;;;;;-2.84;100.00;101263.13;5012637;28;20428;-79
2023/01/26 00:13:41;;;;;;;2.83;1.90;;;;;;;-2.84;100.00;101258.59;5012522;28;20419;-78
2023/01/26 00:16:11;;;;;;;11.23;6.47;;;;;;;-2.86;100.00;101262.50;5012496;28;20430;-79
2023/01/26 00:18:38;;;;;;;10.27;8.03;;;;;;;-2.96;100.00;101262.06;5012419;28;20173;-78
2023/01/26 00:21:04;;;;;;;11.27;8.13;;;;;;;-3.08;100.00;101256.47;5012091;28;20466;-78
2023/01/26 00:23:31;;;;;;;8.23;5.70;;;;;;;-3.12;100.00;101248.06;5012473;28;20415;-79
2023/01/26 00:25:57;;;;;;;5.00;4.67;;;;;;;-3.12;100.00;101253.41;5012296;28;20435;-78
2023/01/26 00:28:22;;;;;;;9.90;9.10;;;;;;;-3.09;100.00;101255.66;5012260;28;20419;-79
2023/01/26 00:30:48;;;;;;;10.27;6.93;;;;;;;-3.09;100.00;101254.84;5011497;28;20563;-79
2023/01/26 00:33:13;;;;;;;12.30;7.43;;;;;;;-3.13;100.00;101246.41;5012277;28;20180;-78
2023/01/26 00:35:43;;;;;;;3.27;2.10;;;;;;;-3.11;100.00;101240.84;5011890;28;20172;-80
2023/01/26 00:38:09;;;;;;;12.10;8.67;;;;;;;-3.15;100.00;101245.78;5012053;28;20247;-79
2023/01/26 00:40:34;;;;;;;8.60;7.43;;;;;;;-3.18;100.00;101240.00;5011849;28;20477;-77
2023/01/26 00:42:59;;;;;;;11.87;8.43;;;;;;;-3.19;100.00;101249.88;5012111;28;20868;-77
2023/01/26 00:45:26;;;;;;;4.50;4.13;;;;;;;-3.15;100.00;101250.31;5012252;28;20181;-79
2023/01/26 00:47:51;;;;;;;2.30;2.20;;;;;;;-3.09;100.00;101238.81;5014738;28;20172;-78
2023/01/26 00:50:16;;;;;;;7.37;4.37;;;;;;;-3.04;100.00;101236.34;5014511;28;20419;-74
2023/01/26 00:52:41;;;;;;;3.00;1.57;;;;;;;-3.00;100.00;101235.75;5012808;28;20180;-79
2023/01/26 00:55:07;;;;;;;7.03;6.23;;;;;;;-2.95;100.00;101239.66;5012346;28;20173;-79
2023/01/26 00:57:32;;;;;;;11.40;8.27;;;;;;;-2.92;100.00;101239.25;5011741;28;20180;-80
2023/01/26 00:59:58;;;;;;;8.83;7.13;;;;;;;-2.97;100.00;101226.50;5011643;28;20279;-78
2023/01/26 01:02:23;;;;;;;1.97;1.90;;;;;;;-2.94;100.00;101222.59;5011800;28;20177;-78
2023/01/26 01:04:48;;;;;;;2.07;1.70;;;;;;;-2.91;100.00;101228.34;5011766;28;20179;-78
2023/01/26 01:07:13;;;;;;;32.23;16.50;;;;;;;-2.92;100.00;101228.56;5011608;28;20173;-79
2023/01/26 01:09:39;;;;;;;18.43;11.43;;;;;;;-2.98;100.00;101221.34;5011538;28;20176;-79
2023/01/26 01:12:04;;;;;;;5.83;5.47;;;;;;;-2.96;100.00;101217.44;5011480;28;20180;-78
2023/01/26 01:14:30;;;;;;;17.90;14.07;;;;;;;-2.97;100.00;101218.47;5011542;28;20616;-79
2023/01/26 01:16:55;;;;;;;17.27;8.93;;;;;;;-3.01;100.00;101212.72;5011370;28;20191;-78
2023/01/26 01:19:20;;;;;;;3.07;2.80;;;;;;;-3.02;100.00;101212.94;5011467;28;20172;-80
2023/01/26 01:21:45;;;;;;;10.73;8.30;;;;;;;-2.98;100.00;101206.13;5012723;28;20298;-76
2023/01/26 01:24:11;;;;;;;5.27;4.97;;;;;;;-2.92;100.00;101204.50;5010436;28;20181;-76
2023/01/26 01:26:37;;;;;;;22.67;8.80;;;;;;;-2.85;100.00;101202.66;5011265;28;20627;-77
2023/01/26 01:29:03;;;;;;;16.80;13.80;;;;;;;-2.85;100.00;101203.50;5011208;28;20176;-79
2023/01/26 01:31:28;;;;;;;16.40;10.60;;;;;;;-2.87;100.00;101194.84;5011042;28;20428;-75
2023/01/26 01:33:55;;;;;;;13.43;8.97;;;;;;;-2.85;100.00;101202.66;5011228;28;20662;-78
2023/01/26 01:36:21;;;;;;;31.33;16.53;;;;;;;-2.88;100.00;101201.22;5011383;28;20183;-76
2023/01/26 01:38:47;;;;;;;11.33;9.87;;;;;;;-2.89;100.00;101204.06;5011209;28;20857;-76
2023/01/26 01:41:14;;;;;;;12.57;7.67;;;;;;;-2.88;100.00;101203.09;5010788;28;20542;-75
2023/01/26 01:43:40;;;;;;;6.10;5.10;;;;;;;-2.85;100.00;101200.81;5009780;28;20180;-77
2023/01/26 01:46:13;;;;;;;19.27;7.23;;;;;;;-2.84;100.00;101194.44;5011229;28;20412;-77
2023/01/26 01:48:55;;;;;;;30.80;13.50;;;;;;;-2.86;100.00;101193.81;5010917;28;20891;-77
2023/01/26 01:51:28;;;;;;;15.07;7.50;;;;;;;-2.86;100.00;101184.97;5010859;28;20416;-78
2023/01/26 01:53:58;;;;;;;18.13;11.97;;;;;;;-2.90;100.00;101186.41;5010968;28;20865;-78
2023/01/26 01:56:27;;;;;;;12.27;10.27;;;;;;;-2.84;100.00;101183.75;5010880;28;20469;-78
2023/01/26 01:58:56;;;;;;;11.67;6.90;;;;;;;-2.77;100.00;101186.41;5010923;28;20443;-78
2023/01/26 02:01:21;;;;;;;9.13;7.63;;;;;;;-2.77;100.00;101187.22;5010804;28;20566;-74
2023/01/26 02:03:49;;;;;;;22.33;12.00;;;;;;;-2.78;100.00;101185.59;5010962;28;20507;-77
2023/01/26 02:06:19;;;;;;;11.10;6.13;;;;;;;-2.73;100.00;101180.47;5010792;28;20659;-78
2023/01/26 02:08:48;;;;;;;24.43;8.83;;;;;;;-2.68;100.00;101174.50;5011073;28;20490;-78
2023/01/26 02:11:17;;;;;;;14.90;8.07;;;;;;;-2.71;100.00;101169.56;5010712;28;20876;-79
2023/01/26 02:13:46;;;;;;;21.87;11.40;;;;;;;-2.67;100.00;101161.94;5010852;28;20434;-77
2023/01/26 02:16:11;;;;;;;2.20;2.17;;;;;;;-2.60;100.00;101162.78;5010863;28;20935;-77
2023/01/26 02:18:37;;;;;;;29.97;9.07;;;;;;;-2.63;100.00;101158.63;5010851;28;20414;-76
2023/01/26 02:21:06;;;;;;;13.67;8.73;;;;;;;-2.63;100.00;101155.97;5010362;28;20216;-78
2023/01/26 02:23:58;;;;;;;5.30;4.73;;;;;;;-2.66;100.00;101159.06;5010872;28;20704;-78
2023/01/26 02:26:26;;;;;;;23.03;12.40;;;;;;;-2.77;100.00;101141.78;5010604;28;20784;-79
2023/01/26 02:28:52;;;;;;;22.10;13.07;;;;;;;-2.77;100.00;101148.97;5010574;28;20424;-78
2023/01/26 02:31:18;;;;;;;0.00;0.00;;;;;;;-2.76;100.00;101153.28;5010518;28;20522;-79
2023/01/26 02:33:44;;;;;;;16.73;10.80;;;;;;;-2.70;100.00;101142.59;5010637;28;20502;-78
2023/01/26 02:36:23;;;;;;;35.70;15.27;;;;;;;-2.78;100.00;101147.31;5010442;28;20204;-77
2023/01/26 02:39:27;;;;;;;18.23;8.40;;;;;;;-2.77;100.00;101138.28;5010565;28;20169;-77
2023/01/26 02:44:38;;;;;;;7.90;7.23;;;;;;;-2.71;100.00;101140.16;5010586;28;20431;-77
2023/01/26 02:47:11;;;;;;;18.93;11.30;;;;;;;-2.73;100.00;101147.56;5011013;28;20419;-78
2023/01/26 02:49:51;;;;;;;6.33;4.03;;;;;;;-2.73;100.00;101132.34;5010391;28;20453;-79
2023/01/26 02:52:20;;;;;;;6.30;5.80;;;;;;;-2.75;100.00;101134.41;5010588;28;20753;-77
2023/01/26 02:57:30;;;;;;;9.90;7.60;;;;;;;-2.67;100.00;101133.34;5014050;28;20466;-78
2023/01/26 02:59:56;;;;;;;25.30;10.70;;;;;;;-2.65;100.00;101135.81;5013817;28;20465;-76
2023/01/26 03:02:21;;;;;;;4.90;4.33;;;;;;;-2.64;100.00;101132.09;5013949;28;20427;-77
2023/01/26 03:04:47;;;;;;;4.57;3.70;;;;;;;-2.63;100.00;101126.53;5013946;28;20256;-78
2023/01/26 03:07:12;;;;;;;5.07;4.53;;;;;;;-2.64;100.00;101132.09;5013825;28;20662;-78
2023/01/26 03:09:37;;;;;;;9.70;5.00;;;;;;;-2.60;100.00;101131.50;5013767;28;20196;-79
2023/01/26 03:12:04;;;;;;;1.80;1.17;;;;;;;-2.54;100.00;101119.13;5013682;28;20660;-75
2023/01/26 03:14:29;;;;;;;4.90;4.67;;;;;;;-2.51;100.00;101121.38;5013611;28;20504;-78
2023/01/26 03:16:54;;;;;;;8.00;6.27;;;;;;;-2.50;100.00;101112.31;5013846;28;20195;-78
2023/01/26 03:27:39;;;;;;;1.40;1.40;;;;;;;-2.36;100.00;101121.16;5013532;28;20785;-79
2023/01/26 03:30:05;;;;;;;1.53;1.43;;;;;;;-2.34;100.00;101121.75;5013378;28;20412;-77
2023/01/26 03:32:30;;;;;;;3.00;2.90;;;;;;;-2.29;100.00;101124.66;5013377;28;20814;-78
2023/01/26 03:34:56;;;;;;;0.33;0.33;;;;;;;-2.27;100.00;101122.59;5013631;28;20178;-79
2023/01/26 03:37:21;;;;;;;0.73;0.73;;;;;;;-2.18;100.00;101116.75;5013188;28;20192;-78
2023/01/26 03:56:31;;;;;;;0.97;0.97;;;;;;;-2.02;100.00;101120.84;5012842;28;20423;-79
2023/01/26 03:59:06;;;;;;;0.00;0.00;;;;;;;-1.96;100.00;101122.66;5011571;28;20427;-77
2023/01/26 04:01:32;;;;;;;1.10;0.47;;;;;;;-1.95;100.00;101124.31;5012643;28;20494;-76
2023/01/26 04:09:31;;;;;;;0.73;0.73;;;;;;;-1.94;100.00;101120.59;5012587;28;20419;-71
2023/01/26 04:11:56;;;;;;;0.00;0.00;;;;;;;-1.98;100.00;101119.38;5012499;28;20518;-77
2023/01/26 04:22:42;;;;;;;9.43;2.90;;;;;;;-1.82;100.00;101108.19;5012711;28;20441;-78
2023/01/26 04:25:08;;;;;;;2.87;2.67;;;;;;;-1.86;100.00;101103.50;5012858;28;20400;-78
2023/01/26 04:27:34;;;;;;;2.53;2.43;;;;;;;-1.90;100.00;101105.75;5012371;28;20489;-78
2023/01/26 04:30:00;;;;;;;1.30;1.30;;;;;;;-1.89;100.00;101099.34;5012184;28;20419;-74
2023/01/26 04:32:26;;;;;;;4.50;2.43;;;;;;;-1.95;100.00;101094.88;5012563;28;20172;-77
2023/01/26 04:34:52;;;;;;;7.23;1.73;;;;;;;-1.96;100.00;101097.75;5012169;28;20422;-78
2023/01/26 04:37:17;;;;;;;0.30;0.30;;;;;;;-2.04;100.00;101101.47;5011932;28;20268;-79
2023/01/26 04:39:42;;;;;;;5.27;5.03;;;;;;;-2.12;100.00;101099.88;5012173;28;20192;-77
2023/01/26 04:42:08;;;;;;;23.43;9.50;;;;;;;-2.18;100.00;101090.00;5011997;28;20567;-78
2023/01/26 04:44:33;;;;;;;8.50;7.30;;;;;;;-2.23;100.00;101078.28;5012213;28;20188;-78
2023/01/26 04:46:58;;;;;;;2.73;2.63;;;;;;;-2.28;100.00;101078.94;5011966;28;20536;-78
2023/01/26 04:49:23;;;;;;;4.73;4.53;;;;;;;-2.29;100.00;101079.97;5011795;28;20628;-75
2023/01/26 04:51:49;;;;;;;4.27;2.00;;;;;;;-2.25;100.00;101081.19;5011628;28;20195;-75
2023/01/26 04:54:14;;;;;;;5.13;2.60;;;;;;;-2.23;100.00;101079.13;5012068;28;20180;-76
2023/01/26 04:56:39;;;;;;;1.00;1.00;;;;;;;-2.22;100.00;101080.75;5011771;28;20267;-76
2023/01/26 04:59:07;;;;;;;1.53;1.53;;;;;;;-2.17;100.00;101075.63;5012194;28;20180;-77
2023/01/26 05:01:32;;;;;;;0.53;0.53;;;;;;;-2.12;100.00;101078.47;5011501;28;20741;-77
2023/01/26 05:03:59;;;;;;;3.43;3.23;;;;;;;-2.14;100.00;101077.03;5011858;28;20423;-77
2023/01/26 05:06:24;;;;;;;20.10;6.40;;;;;;;-2.13;100.00;101070.66;5012169;28;20172;-79
2023/01/26 05:08:49;;;;;;;4.03;2.90;;;;;;;-2.15;100.00;101070.03;5011524;28;20474;-77
2023/01/26 05:11:15;;;;;;;7.53;3.87;;;;;;;-2.15;100.00;101062.84;5011476;28;20176;-79
2023/01/26 05:13:40;;;;;;;13.10;5.77;;;;;;;-2.21;100.00;101061.00;5011565;28;20543;-78
2023/01/26 05:16:06;;;;;;;2.73;2.57;;;;;;;-2.19;100.00;101050.06;5011449;28;20619;-75
2023/01/26 05:18:32;;;;;;;1.07;1.07;;;;;;;-2.14;100.00;101055.63;5011255;28;20177;-77
2023/01/26 05:20:57;;;;;;;14.13;2.37;;;;;;;-2.10;100.00;101054.97;5010902;28;20461;-76
2023/01/26 05:23:22;;;;;;;0.50;0.50;;;;;;;-2.00;100.00;101062.56;5011399;28;20177;-76
2023/01/26 05:25:48;;;;;;;0.07;0.07;;;;;;;-1.95;100.00;101069.94;5011358;28;20169;-78
2023/01/26 05:28:13;;;;;;;0.80;0.80;;;;;;;-1.96;100.00;101061.09;5011359;28;20640;-80
2023/01/26 05:30:38;;;;;;;1.77;1.67;;;;;;;-1.99;100.00;101066.88;5010859;28;20168;-78
2023/01/26 05:33:06;;;;;;;4.67;4.27;;;;;;;-2.05;100.00;101065.03;5011214;28;20263;-79
2023/01/26 05:35:31;;;;;;;7.67;3.17;;;;;;;-2.11;100.00;101071.25;5010621;28;20267;-79
2023/01/26 05:37:57;;;;;;;9.43;2.37;;;;;;;-2.13;100.00;101066.13;5011170;28;20603;-78
2023/01/26 05:40:22;;;;;;;5.43;5.13;;;;;;;-2.17;100.00;101066.72;5012273;28;20208;-78
2023/01/26 05:42:48;;;;;;;3.77;3.40;;;;;;;-2.24;100.00;101069.44;5012928;28;20187;-78
2023/01/26 05:45:14;;;;;;;23.23;7.93;;;;;;;-2.29;100.00;101068.44;5011219;28;20251;-78
2023/01/26 05:47:41;;;;;;;10.63;4.17;;;;;;;-2.32;100.00;101061.66;5010868;28;20414;-79
2023/01/26 05:50:07;;;;;;;0.00;0.00;;;;;;;-2.34;100.00;101065.56;5011069;28;20227;-78
2023/01/26 05:52:33;;;;;;;10.03;7.07;;;;;;;-2.32;100.00;101069.66;5010956;28;20428;-78
2023/01/26 05:54:58;;;;;;;15.17;9.33;;;;;;;-2.34;100.00;101061.03;5011031;28;20222;-79
2023/01/26 05:57:23;;;;;;;12.23;6.13;;;;;;;-2.32;100.00;101067.00;5011031;28;20196;-77
2023/01/26 05:59:49;;;;;;;22.50;9.93;;;;;;;-2.34;100.00;101066.38;5010928;28;20176;-78
2023/01/26 06:02:14;;;;;;;14.13;10.30;;;;;;;-2.36;100.00;101070.31;5010886;28;20183;-79
2023/01/26 06:04:39;;;;;;;17.87;7.67;;;;;;;-2.42;100.00;101070.13;5010954;28;20214;-78
2023/01/26 06:07:05;;;;;;;7.13;6.63;;;;;;;-2.41;100.00;101070.97;5010778;28;20207;-78
2023/01/26 06:09:30;;;;;;;14.93;9.57;;;;;;;-2.39;100.00;101071.56;5010926;28;20247;-79
2023/01/26 06:11:56;;;;;;;21.43;10.03;;;;;;;-2.40;100.00;101073.41;5010815;28;20219;-78
2023/01/26 06:14:21;;;;;;;39.20;16.53;;;;;;;-2.42;100.00;101066.63;5010752;28;20179;-78
2023/01/26 06:16:47;;;;;;;26.73;11.37;;;;;;;-2.46;100.00;101070.75;5010666;28;20172;-78
2023/01/26 06:19:12;;;;;;;20.80;9.77;;;;;;;-2.44;100.00;101074.88;5010729;28;20177;-78
2023/01/26 06:21:37;;;;;;;21.47;11.00;;;;;;;-2.45;100.00;101067.88;5010616;28;20209;-78
2023/01/26 06:24:03;;;;;;;17.40;14.90;;;;;;;-2.47;100.00;101066.44;5010765;28;20188;-79
2023/01/26 06:26:28;;;;;;;20.47;8.60;;;;;;;-2.43;100.00;101076.53;5010780;28;20728;-85
2023/01/26 06:28:54;;;;;;;23.17;14.37;;;;;;;-2.43;100.00;101079.19;5011780;28;20686;-78
2023/01/26 06:31:20;;;;;;;11.27;9.00;;;;;;;-2.44;100.00;101077.56;5012971;28;20247;-78
2023/01/26 06:33:45;;;;;;;12.27;10.73;;;;;;;-2.42;100.00;101072.81;5014579;28;20181;-75
2023/01/26 06:36:14;;;;;;;19.10;5.40;;;;;;;-2.38;100.00;101080.41;5014247;28;20424;-78
2023/01/26 06:38:47;;;;;;;6.13;5.53;;;;;;;-2.32;100.00;101077.69;5014209;28;20191;-78
2023/01/26 06:41:14;;;;;;;4.87;4.57;;;;;;;-2.33;100.00;101078.72;5013700;28;20501;-78
2023/01/26 06:43:44;;;;;;;16.87;9.83;;;;;;;-2.33;100.00;101075.25;5014360;28;20416;-78
2023/01/26 06:46:09;;;;;;;12.30;8.80;;;;;;;-2.31;100.00;101081.22;5014010;28;20410;-78
2023/01/26 06:48:35;;;;;;;6.33;5.63;;;;;;;-2.29;100.00;101077.31;5013950;28;20767;-79
2023/01/26 06:51:40;;;;;;;28.97;15.17;;;;;;;-2.29;100.00;101081.84;5013576;28;20169;-77
2023/01/26 06:54:09;;;;;;;37.23;5.93;;;;;;;-2.24;100.00;101088.19;5013799;28;20183;-78
2023/01/26 06:56:34;;;;;;;26.43;11.83;;;;;;;-2.26;100.00;101084.06;5014078;28;20469;-78
2023/01/26 06:59:00;;;;;;;17.00;8.67;;;;;;;-2.27;100.00;101079.75;5013788;28;20842;-78
2023/01/26 07:01:25;;;;;;;10.13;9.10;;;;;;;-2.24;100.00;101080.16;5013428;28;20196;-76
2023/01/26 07:03:52;;;;;;;20.73;12.20;;;;;;;-2.25;100.00;101085.72;5013743;28;20388;-78
2023/01/26 07:06:18;;;;;;;1.73;1.73;;;;;;;-2.21;100.00;101087.75;5013373;28;20176;-78
2023/01/26 07:08:44;;;;;;;27.03;14.53;;;;;;;-2.21;100.00;101082.41;5013667;28;20759;-78
2023/01/26 07:11:11;;;;;;;18.93;7.83;;;;;;;-2.19;100.00;101088.34;5013308;28;20183;-76
2023/01/26 07:13:36;;;;;;;5.37;3.57;;;;;;;-2.13;100.00;101078.69;5013817;28;20176;-79
2023/01/26 07:16:08;;;;;;;17.00;6.43;;;;;;;-2.12;100.00;101074.97;5013481;28;20446;-78
2023/01/26 07:18:33;;;;;;;21.63;8.90;;;;;;;-2.09;100.00;101082.56;5013170;28;20178;-77
2023/01/26 07:21:03;;;;;;;14.07;7.63;;;;;;;-2.08;100.00;101070.00;5012828;28;20454;-79
2023/01/26 07:23:29;;;;;;;5.43;2.57;;;;;;;-2.09;100.00;101079.88;5013358;28;20202;-78
2023/01/26 07:25:54;;;;;;;2.67;2.47;;;;;;;-2.04;100.00;101082.75;4995049;28;20435;-80
2023/01/26 07:28:19;;;;;;;3.30;3.03;;;;;;;-2.00;100.00;101078.63;4993811;28;20777;-80
2023/01/26 07:30:45;;;;;;;2.07;1.90;;;;;;;-1.99;100.00;101076.78;4993368;28;20264;-80
2023/01/26 07:33:10;;;;;;;7.83;6.00;;;;;;;-2.00;100.00;101086.66;4993667;28;20543;-79
2023/01/26 07:35:35;;;;;;;6.60;6.00;;;;;;;-2.02;100.00;101083.38;4994004;28;20644;-78
2023/01/26 07:38:04;;;;;;;5.70;5.33;;;;;;;-2.03;100.00;101083.56;4992862;28;20567;-76
2023/01/26 07:40:29;;;;;;;0.20;0.20;;;;;;;-1.95;100.00;101084.16;4991795;28;20217;-80
2023/01/26 07:42:56;;;;;;;0.00;0.00;;;;;;;-1.84;100.00;101083.50;4992425;28;20486;-78
2023/01/26 07:45:21;;;;;;;0.33;0.33;;;;;;;-1.69;100.00;101087.75;4993418;28;20180;-79
2023/01/26 07:47:47;;;;;;;8.90;6.53;;;;;;;-1.78;100.00;101087.16;4993307;28;20508;-78
2023/01/26 07:50:12;;;;;;;1.13;1.13;;;;;;;-1.81;100.00;101074.19;4993129;28;20268;-80
2023/01/26 07:52:38;;;;;;;2.93;2.83;;;;;;;-1.70;100.00;101084.25;4993276;28;20206;-78
2023/01/26 07:55:04;;;;;;;4.77;2.70;;;;;;;-1.68;100.00;101094.75;4993303;28;20189;-79
2023/01/26 07:57:30;;;;;;;10.60;4.33;;;;;;;-1.73;100.00;101089.22;4993150;28;20420;-77
2023/01/26 07:59:56;;;;;;;13.10;1.43;;;;;;;-1.83;100.00;101090.47;4993068;28;20184;-76
2023/01/26 08:02:21;;;;;;;4.83;4.43;;;;;;;-1.83;100.00;101095.84;4992952;28;20763;-76
2023/01/26 08:04:47;;;;;;;6.50;5.87;;;;;;;-1.81;100.00;101083.06;4993117;28;20181;-74
2023/01/26 08:07:13;;;;;;;3.53;3.23;;;;;;;-1.85;100.00;101079.16;4992813;28;20178;-76
2023/01/26 08:09:38;;;;;;;3.63;3.30;;;;;;;-1.86;100.00;101084.75;4991664;28;20779;-73
2023/01/26 08:12:04;;;;;;;2.93;2.73;;;;;;;-1.81;100.00;101087.59;4993293;28;20177;-79
2023/01/26 08:14:29;;;;;;;4.33;4.00;;;;;;;-1.73;100.00;101090.03;4985100;28;20225;-83
2023/01/26 08:16:54;;;;;;;0.00;0.00;;;;;;;-1.64;100.00;101082.53;4974864;28;20297;-78
2023/01/26 08:19:20;;;;;;;7.37;6.73;;;;;;;-1.59;100.00;101088.06;4973343;28;20182;-77
2023/01/26 08:21:45;;;;;;;10.57;9.60;;;;;;;-1.65;100.00;101088.94;4972701;28;20279;-76
2023/01/26 08:24:11;;;;;;;5.27;3.67;;;;;;;-1.71;100.00;101092.50;4973419;28;20178;-77
2023/01/26 08:26:36;;;;;;;2.37;2.23;;;;;;;-1.69;100.00;101088.56;4973306;28;20174;-78
2023/01/26 08:29:02;;;;;;;0.57;0.57;;;;;;;-1.56;100.00;101090.34;4973311;28;20201;-77
2023/01/26 08:31:27;;;;;;;1.40;1.40;;;;;;;-1.49;100.00;101085.75;4972958;28;20190;-77
2023/01/26 08:33:54;;;;;;;3.30;3.03;;;;;;;-1.48;100.00;101095.44;4973203;28;20177;-78
2023/01/26 08:36:20;;;;;;;0.83;0.83;;;;;;;-1.46;100.00;101096.03;4974955;28;20268;-70
2023/01/26 08:38:45;;;;;;;10.67;6.73;;;;;;;-1.52;100.00;101084.31;4973458;28;20772;-71
2023/01/26 08:41:11;;;;;;;0.47;0.47;;;;;;;-1.51;100.00;101094.00;4972562;28;20465;-75
2023/01/26 08:43:36;;;;;;;17.13;12.40;;;;;;;-1.53;100.00;101082.69;4973152;28;20722;-71
2023/01/26 08:46:02;;;;;;;3.90;3.27;;;;;;;-1.52;100.00;101087.00;4973313;28;20197;-72
2023/01/26 08:48:29;;;;;;;2.03;1.93;;;;;;;-1.44;100.00;101093.97;4973316;28;20320;-71
2023/01/26 08:50:57;;;;;;;2.73;2.53;;;;;;;-1.35;100.00;101092.66;4973026;28;20190;-71
2023/01/26 08:53:23;;;;;;;11.47;8.60;;;;;;;-1.39;100.00;101101.38;4973035;28;20453;-71
2023/01/26 08:55:49;;;;;;;12.40;7.40;;;;;;;-1.42;100.00;101091.09;4972808;28;20943;-72
2023/01/26 08:58:15;;;;;;;0.57;0.57;;;;;;;-1.42;100.00;101101.81;4972607;28;20177;-72
2023/01/26 09:00:40;;;;;;;7.80;7.30;;;;;;;-1.32;100.00;101108.31;4971130;28;20206;-79
2023/01/26 09:03:06;;;;;;;2.73;2.63;;;;;;;-1.30;100.00;101110.78;4972610;28;20226;-74
2023/01/26 09:05:33;;;;;;;16.23;6.97;;;;;;;-1.33;100.00;101116.56;4972337;28;20193;-76
2023/01/26 09:07:59;;;;;;;24.97;11.13;;;;;;;-1.37;100.00;101110.00;4972187;28;20256;-71
2023/01/26 09:10:24;;;;;;;3.57;2.40;;;;;;;-1.39;100.00;101112.09;4972270;28;20905;-73
2023/01/26 09:12:49;;;;;;;3.37;3.07;;;;;;;-1.34;100.00;101114.94;4972442;28;20181;-72
2023/01/26 09:15:15;;;;;;;6.37;5.83;;;;;;;-1.30;100.00;101110.78;4972473;28;20182;-76
2023/01/26 09:17:41;;;;;;;31.70;15.00;;;;;;;-1.30;100.00;101106.25;4972276;28;20205;-77
2023/01/26 09:20:08;;;;;;;13.13;11.70;;;;;;;-1.38;100.00;101108.38;4972124;28;20229;-71
2023/01/26 09:22:34;;;;;;;13.83;6.13;;;;;;;-1.33;100.00;101114.69;4972196;28;20430;-74
2023/01/26 09:24:59;;;;;;;23.60;11.20;;;;;;;-1.30;100.00;101113.47;4972186;28;20417;-72
2023/01/26 09:27:24;;;;;;;26.03;17.87;;;;;;;-1.33;100.00;101122.75;4972336;28;20646;-75
2023/01/26 09:29:51;;;;;;;13.57;9.20;;;;;;;-1.32;100.00;101113.66;4972155;28;20170;-70
2023/01/26 09:32:16;;;;;;;23.23;12.17;;;;;;;-1.31;100.00;101109.94;4972279;28;20260;-71
2023/01/26 09:34:41;;;;;;;33.13;17.70;;;;;;;-1.29;100.00;101102.53;4970792;28;20539;-74
2023/01/26 09:37:07;;;;;;;20.67;13.10;;;;;;;-1.33;100.00;101097.81;4971631;28;20181;-72
2023/01/26 09:39:33;;;;;;;15.27;7.80;;;;;;;-1.31;100.00;101101.91;4972358;28;20680;-76
2023/01/26 09:42:16;;;;;;;14.57;9.47;;;;;;;-1.28;100.00;101106.84;4971637;28;20297;-72
2023/01/26 09:45:02;;;;;;;18.27;13.10;;;;;;;-1.23;100.00;101107.00;4971948;28;20177;-72
2023/01/26 09:47:36;;;;;;;2.47;1.70;;;;;;;-1.20;100.00;101101.22;4971918;28;20413;-74
2023/01/26 09:50:10;;;;;;;14.90;10.53;;;;;;;-1.14;100.00;101104.91;4972230;28;20405;-78
2023/01/26 09:52:48;;;;;;;15.10;12.07;;;;;;;-1.16;100.00;101101.59;4972166;28;20410;-75
2023/01/26 09:55:18;;;;;;;12.27;7.00;;;;;;;-1.09;100.00;101104.25;4972224;28;20406;-79
2023/01/26 09:57:52;;;;;;;28.87;16.00;;;;;;;-1.08;100.00;101101.34;4972065;28;20417;-78
2023/01/26 10:00:23;;;;;;;23.10;11.23;;;;;;;-1.07;100.00;101094.13;4971596;28;20815;-72
2023/01/26 10:03:12;;;;;;;15.93;14.03;;;;;;;-1.08;100.00;101097.84;4971812;28;20417;-83
2023/01/26 10:05:52;;;;;;;7.73;7.00;;;;;;;-1.12;100.00;101107.38;4976105;28;20405;-83
2023/01/26 10:08:22;;;;;;;14.57;10.50;;;;;;;-1.10;100.00;101102.59;4975779;28;20476;-83
2023/01/26 10:10:52;;;;;;;2.97;2.80;;;;;;;-1.03;100.00;101095.31;4975507;28;20413;-83
2023/01/26 10:13:20;;;;;;;19.37;11.27;;;;;;;-1.03;100.00;101092.63;4975556;28;20453;-86
2023/01/26 10:16:09;;;;;;;24.63;13.87;;;;;;;-1.10;100.00;101095.38;4976550;28;20549;-85
2023/01/26 10:18:47;;;;;;;5.87;5.50;;;;;;;-1.06;100.00;101090.38;4976351;28;20756;-86
2023/01/26 10:21:17;;;;;;;7.10;6.60;;;;;;;-1.03;100.00;101085.41;4975365;28;20469;-82
2023/01/26 10:23:47;;;;;;;10.20;8.13;;;;;;;-0.95;100.00;101087.00;4975792;28;20763;-83
2023/01/26 10:26:17;;;;;;;2.13;2.03;;;;;;;-0.99;100.00;101094.69;4975690;28;20449;-81
2023/01/26 10:28:44;;;;;;;1.90;1.80;;;;;;;-0.92;100.00;101098.09;4975529;28;20425;-82
2023/01/26 10:31:17;;;;;;;29.53;13.37;;;;;;;-0.89;100.00;101104.88;4975342;28;20504;-82
2023/01/26 10:33:50;;;;;;;2.37;2.23;;;;;;;-0.87;100.00;101097.44;4975445;28;20482;-82
2023/01/26 10:36:16;;;;;;;5.97;3.90;;;;;;;-0.83;100.00;101098.66;4975459;28;20444;-81
2023/01/26 10:38:42;;;;;;;8.03;7.27;;;;;;;-0.78;100.00;101104.19;4975200;28;20409;-79
2023/01/26 10:41:17;;;;;;;4.17;3.93;;;;;;;-0.87;100.00;101093.94;4975002;28;20293;-82
2023/01/26 10:44:18;;;;;;;10.40;8.47;;;;;;;-0.85;100.00;101106.13;4974131;28;20460;-80
2023/01/26 10:46:43;;;;;;;4.67;4.27;;;;;;;-0.86;100.00;101098.28;4975127;28;20460;-83
2023/01/26 10:49:08;;;;;;;5.53;5.23;;;;;;;-0.86;100.00;101088.38;4975062;28;20421;-75
2023/01/26 10:51:36;;;;;;;11.93;8.17;;;;;;;-0.80;100.00;101090.16;4973537;28;20205;-81
2023/01/26 10:54:25;;;;;;;11.07;6.33;;;;;;;-0.81;100.00;101085.84;4975050;28;20176;-80
2023/01/26 10:56:54;;;;;;;15.33;9.57;;;;;;;-0.79;100.00;101074.88;4979278;28;20421;-75
2023/01/26 10:59:26;;;;;;;5.43;4.90;;;;;;;-0.84;100.00;101072.88;4977764;28;20457;-80
2023/01/26 11:02:11;;;;;;;9.17;7.07;;;;;;;-0.79;100.00;101070.34;4985537;28;20874;-78
2023/01/26 11:04:37;;;;;;;14.07;9.50;;;;;;;-0.78;100.00;101058.56;4987289;28;21126;-79
2023/01/26 11:07:26;;;;;;;6.97;6.37;;;;;;;-0.77;100.00;101060.22;4983612;28;20420;-81
2023/01/26 11:09:53;;;;;;;7.00;4.73;;;;;;;-0.75;100.00;101063.50;4984153;28;20572;-74
2023/01/26 11:12:20;;;;;;;8.80;7.53;;;;;;;-0.76;100.00;101061.03;4982237;28;20422;-76
2023/01/26 11:15:01;;;;;;;10.00;9.13;;;;;;;-0.75;100.00;101060.00;4982557;28;20455;-76
2023/01/26 11:17:37;;;;;;;20.03;11.63;;;;;;;-0.79;100.00;101054.25;4983260;28;20560;-83
2023/01/26 11:20:30;;;;;;;9.20;8.30;;;;;;;-0.77;100.00;101054.84;4982476;28;20428;-81
2023/01/26 11:23:20;;;;;;;4.37;2.80;;;;;;;-0.72;100.00;101057.72;4974450;28;20443;-80
2023/01/26 11:26:19;;;;;;;4.53;4.33;;;;;;;-0.71;100.00;101053.97;4974510;28;20413;-76
2023/01/26 11:29:09;;;;;;;10.47;9.77;;;;;;;-0.68;100.00;101045.47;4974419;28;20418;-82
2023/01/26 11:31:40;;;;;;;11.10;9.47;;;;;;;-0.62;100.00;101041.06;4974550;28;20405;-84
2023/01/26 11:34:21;;;;;;;1.33;1.33;;;;;;;-0.58;100.00;101050.31;4974521;28;20425;-73
2023/01/26 11:37:17;;;;;;;9.77;6.60;;;;;;;-0.52;100.00;101040.56;4974341;28;20968;-80
2023/01/26 11:39:51;;;;;;;10.53;8.00;;;;;;;-0.58;100.00;101044.94;4974401;28;20417;-82
2023/01/26 11:42:34;;;;;;;13.37;5.77;;;;;;;-0.54;100.00;101039.97;4974132;28;20473;-81
2023/01/26 11:45:15;;;;;;;3.30;3.20;;;;;;;-0.48;100.00;101039.06;4974150;28;20424;-72
2023/01/26 11:48:20;;;;;;;12.60;6.97;;;;;;;-0.44;100.00;101037.56;4974005;28;20413;-83
2023/01/26 11:51:11;;;;;;;0.57;0.57;;;;;;;-0.43;100.00;101031.19;4973950;28;20927;-80
2023/01/26 11:53:39;;;;;;;10.77;2.77;;;;;;;-0.44;100.00;101035.69;4974085;28;20975;-79
2023/01/26 11:56:21;;;;;;;0.70;0.67;;;;;;;-0.39;100.00;101037.75;4973907;28;20459;-79
2023/01/26 11:59:00;;;;;;;1.93;1.83;;;;;;;-0.37;100.00;101030.28;4974101;28;20421;-83
2023/01/26 12:01:43;;;;;;;0.27;0.27;;;;;;;-0.33;100.00;101024.22;4973733;28;20586;-83
2023/01/26 12:04:17;;;;;;;16.13;4.03;;;;;;;-0.34;100.00;101022.59;4973823;28;20193;-81